createdAt,value
2018-03-19T00:01:54.110Z,7.50
2018-03-19T00:04:22.141Z,8.52
2018-03-19T00:06:52.831Z,9.27
2018-03-19T00:09:26.857Z,8.00
2018-03-19T00:11:55.850Z,8.88
2018-03-19T00:14:26.914Z,8.07
2018-03-19T00:16:54.941Z,8.82
2018-03-19T00:19:23.953Z,7.15
2018-03-19T00:21:55.097Z,7.62
2018-03-19T00:24:24.090Z,7.80
2018-03-19T00:26:54.109Z,7.00
2018-03-19T00:29:28.793Z,8.65
2018-03-19T00:32:01.521Z,8.07
2018-03-19T00:34:33.585Z,8.60
2018-03-19T00:37:01.617Z,7.70
2018-03-19T00:39:29.641Z,8.77
2018-03-19T00:41:58.445Z,7.03
2018-03-19T00:44:26.490Z,8.15
2018-03-19T00:46:55.473Z,7.70
2018-03-19T00:49:27.327Z,8.35
2018-03-19T00:51:57.343Z,7.60
2018-03-19T00:54:27.353Z,7.25
2018-03-19T00:56:58.753Z,8.15
2018-03-19T00:59:26.792Z,7.82
2018-03-19T01:01:57.513Z,7.82
2018-03-19T01:04:28.652Z,7.70
2018-03-19T01:06:56.700Z,7.80
2018-03-19T01:09:25.705Z,8.50
2018-03-19T01:12:06.356Z,7.65
2018-03-19T01:14:35.368Z,8.60
2018-03-19T01:17:16.640Z,7.95
2018-03-19T01:19:45.640Z,7.65
2018-03-19T01:22:17.799Z,7.75
2018-03-19T01:24:45.832Z,8.18
2018-03-19T01:27:14.772Z,7.68
2018-03-19T01:29:46.005Z,8.85
2018-03-19T01:32:16.045Z,7.65
2018-03-19T01:34:46.761Z,8.05
2018-03-19T01:37:14.788Z,7.60
2018-03-19T01:39:46.072Z,7.22
2018-03-19T01:42:19.756Z,8.18
2018-03-19T01:44:47.796Z,8.02
2018-03-19T01:47:17.765Z,7.32
2018-03-19T01:49:46.780Z,7.90
2018-03-19T01:52:15.580Z,7.03
2018-03-19T01:54:45.252Z,8.07
2018-03-19T01:57:13.281Z,7.72
2018-03-19T01:59:52.652Z,8.00
2018-03-19T02:02:20.752Z,7.65
2018-03-19T02:04:51.468Z,7.20
2018-03-19T02:07:23.950Z,7.22
2018-03-19T02:09:53.692Z,7.43
2018-03-19T02:12:21.724Z,7.90
2018-03-19T02:14:50.704Z,8.02
2018-03-19T02:17:18.750Z,7.55
2018-03-19T02:19:46.784Z,9.10
2018-03-19T02:22:19.535Z,7.62
2018-03-19T02:24:47.576Z,7.05
2018-03-19T02:27:15.600Z,8.40
2018-03-19T02:29:49.288Z,6.95
2018-03-19T02:32:18.084Z,7.25
2018-03-19T02:34:46.876Z,7.05
2018-03-19T02:37:20.040Z,8.57
2018-03-19T02:39:48.068Z,8.10
2018-03-19T02:42:19.143Z,7.82
2018-03-19T02:44:47.172Z,7.70
2018-03-19T02:47:18.359Z,8.30
2018-03-19T02:49:46.419Z,7.00
2018-03-19T02:52:15.413Z,8.25
2018-03-19T02:54:43.440Z,7.85
2018-03-19T02:57:14.853Z,7.90
2018-03-19T02:59:42.865Z,7.90
2018-03-19T03:02:13.952Z,8.38
2018-03-19T03:04:45.392Z,7.18
2018-03-19T03:07:13.432Z,8.73
2018-03-19T03:09:47.084Z,8.93
2018-03-19T03:12:16.068Z,6.95
2018-03-19T03:14:44.100Z,7.53
2018-03-19T03:17:25.472Z,8.10
2018-03-19T03:20:01.636Z,7.22
2018-03-19T03:22:33.244Z,7.62
2018-03-19T03:25:01.272Z,7.80
2018-03-19T03:27:29.303Z,6.55
2018-03-19T03:30:03.689Z,7.60
2018-03-19T03:32:35.672Z,7.70
2018-03-19T03:35:08.429Z,8.25
2018-03-19T03:37:40.180Z,8.25
2018-03-19T03:40:12.820Z,9.13
2018-03-19T03:42:40.851Z,8.50
2018-03-19T03:45:09.644Z,7.47
2018-03-19T03:47:39.432Z,9.27
2018-03-19T03:50:07.465Z,7.47
2018-03-19T03:52:39.680Z,7.78
2018-03-19T03:55:07.707Z,9.00
2018-03-19T03:57:35.735Z,7.95
2018-03-19T04:00:05.512Z,8.45
2018-03-19T04:02:33.548Z,7.55
2018-03-19T04:05:01.588Z,8.15
2018-03-19T04:07:35.275Z,8.30
2018-03-19T04:10:07.219Z,8.50
2018-03-19T04:12:37.279Z,7.78
2018-03-19T04:15:09.007Z,7.85
2018-03-19T04:17:37.059Z,7.03
2018-03-19T04:20:09.959Z,8.13
2018-03-19T04:22:39.990Z,8.98
2018-03-19T04:25:08.764Z,8.20
2018-03-19T04:27:41.431Z,8.07
2018-03-19T04:30:18.100Z,7.65
2018-03-19T04:32:49.195Z,9.32
2018-03-19T04:35:21.003Z,9.48
2018-03-19T04:37:49.039Z,8.10
2018-03-19T04:40:20.016Z,7.80
2018-03-19T04:42:48.039Z,7.57
2018-03-19T04:45:29.299Z,8.45
2018-03-19T04:47:59.063Z,7.90
2018-03-19T04:50:38.600Z,8.55
2018-03-19T04:53:16.483Z,8.65
2018-03-19T04:55:46.423Z,8.43
2018-03-19T04:58:18.403Z,8.30
2018-03-19T05:00:46.423Z,7.93
2018-03-19T05:03:20.178Z,7.62
2018-03-19T05:05:48.219Z,7.53
2018-03-19T05:08:17.227Z,8.13
2018-03-19T05:10:47.243Z,9.65
2018-03-19T05:13:17.463Z,7.35
2018-03-19T05:15:45.495Z,7.50
2018-03-19T05:18:24.115Z,7.95
2018-03-19T05:20:52.136Z,7.93
2018-03-19T05:23:24.696Z,7.18
2018-03-19T05:25:52.729Z,6.15
2018-03-19T05:28:27.062Z,7.47
2018-03-19T05:31:02.228Z,7.00
2018-03-19T05:33:36.718Z,7.93
2018-03-19T05:36:08.911Z,7.07
2018-03-19T05:38:36.980Z,7.50
2018-03-19T05:41:05.964Z,7.45
2018-03-19T05:43:46.883Z,7.07
2018-03-19T05:46:20.137Z,8.07
2018-03-19T05:48:52.115Z,6.75
2018-03-19T05:51:24.079Z,7.32
2018-03-19T05:53:52.863Z,7.80
2018-03-19T05:56:22.664Z,7.55
2018-03-19T05:58:55.239Z,7.85
2018-03-19T06:01:31.055Z,7.62
2018-03-19T06:04:02.219Z,8.48
2018-03-19T06:06:32.247Z,6.72
2018-03-19T06:09:07.567Z,6.40
2018-03-19T06:11:37.603Z,7.82
2018-03-19T06:14:05.631Z,7.25
2018-03-19T06:16:33.658Z,7.53
2018-03-19T06:21:59.795Z,6.70
2018-03-19T06:24:28.771Z,7.65
2018-03-19T06:27:01.967Z,7.50
2018-03-19T06:29:34.335Z,8.25
2018-03-19T06:32:05.683Z,8.00
2018-03-19T06:34:39.379Z,7.78
2018-03-19T06:37:12.771Z,8.38
2018-03-19T06:39:41.798Z,7.05
2018-03-19T06:42:14.538Z,7.25
2018-03-19T06:44:46.411Z,8.32
2018-03-19T06:47:25.231Z,8.18
2018-03-19T06:49:53.268Z,7.72
2018-03-19T06:52:24.346Z,6.90
2018-03-19T06:54:57.050Z,8.60
2018-03-19T06:57:27.758Z,8.90
2018-03-19T06:59:57.815Z,7.53
2018-03-19T07:02:30.238Z,7.60
2018-03-19T07:05:05.580Z,7.12
2018-03-19T07:07:34.366Z,7.40
2018-03-19T07:10:02.394Z,6.62
2018-03-19T07:12:30.406Z,6.78
2018-03-19T07:15:05.492Z,6.28
2018-03-19T07:17:37.958Z,7.18
2018-03-19T07:20:10.004Z,8.23
2018-03-19T07:22:39.999Z,8.25
2018-03-19T07:25:11.682Z,8.25
2018-03-19T07:27:45.470Z,7.60
2018-03-19T07:30:20.079Z,8.30
2018-03-19T07:32:51.542Z,9.50
2018-03-19T07:35:22.692Z,7.70
2018-03-19T07:37:54.570Z,9.00
2018-03-19T07:40:27.158Z,8.45
2018-03-19T07:42:56.115Z,8.68
2018-03-19T07:45:28.588Z,7.78
2018-03-19T07:47:56.630Z,8.18
2018-03-19T07:50:24.650Z,8.45
2018-03-19T07:52:57.104Z,8.13
2018-03-19T07:55:26.082Z,8.23
2018-03-19T07:57:56.102Z,8.35
2018-03-19T08:00:26.127Z,9.30
2018-03-19T08:02:57.562Z,8.20
2018-03-19T08:05:26.482Z,8.70
2018-03-19T08:07:56.167Z,8.02
2018-03-19T08:10:28.838Z,9.52
2018-03-19T08:12:58.754Z,6.90
2018-03-19T08:15:29.898Z,7.90
2018-03-19T08:17:59.830Z,8.63
2018-03-19T08:20:28.738Z,9.52
2018-03-19T08:23:00.550Z,9.63
2018-03-19T08:25:33.790Z,8.30
2018-03-19T08:28:06.518Z,8.57
2018-03-19T08:30:45.274Z,9.63
2018-03-19T08:33:14.058Z,9.20
2018-03-19T08:35:45.386Z,9.40
2018-03-19T08:38:20.061Z,9.75
2018-03-19T08:40:53.585Z,8.30
2018-03-19T08:43:23.256Z,8.50
2018-03-19T08:45:52.042Z,8.63
2018-03-19T08:48:31.266Z,8.02
2018-03-19T08:51:00.978Z,7.70
2018-03-19T08:53:30.649Z,8.00
2018-03-19T08:55:59.558Z,8.55
2018-03-19T08:58:27.574Z,8.60
2018-03-19T09:00:56.490Z,9.38
2018-03-19T09:03:25.402Z,9.55
2018-03-19T09:05:53.422Z,7.57
2018-03-19T09:08:26.749Z,8.35
2018-03-19T09:10:58.600Z,8.25
2018-03-19T09:13:28.525Z,9.07
2018-03-19T09:16:05.041Z,7.30
2018-03-19T09:18:34.702Z,7.70
2018-03-19T09:21:07.087Z,8.45
2018-03-19T09:23:35.114Z,9.20
2018-03-19T09:26:10.497Z,8.25
2018-03-19T09:28:44.185Z,7.57
2018-03-19T09:31:16.421Z,9.70
2018-03-19T09:33:44.402Z,9.10
2018-03-19T09:36:18.930Z,9.25
2018-03-19T09:38:49.997Z,8.55
2018-03-19T09:41:20.026Z,8.45
2018-03-19T09:43:53.813Z,8.02
2018-03-19T09:46:21.858Z,7.87
2018-03-19T09:49:09.110Z,8.15
2018-03-19T09:51:39.142Z,9.60
2018-03-19T09:54:08.113Z,7.87
2018-03-19T09:56:36.133Z,6.95
2018-03-19T10:02:04.797Z,7.87
2018-03-19T10:04:37.069Z,8.65
2018-03-19T10:07:05.094Z,9.52
2018-03-19T10:09:45.149Z,8.60
2018-03-19T10:12:28.681Z,9.23
2018-03-19T10:15:05.065Z,8.50
2018-03-19T10:17:37.297Z,9.40
2018-03-19T10:20:10.205Z,8.30
2018-03-19T10:22:44.137Z,9.00
2018-03-19T10:25:12.169Z,8.75
2018-03-19T10:27:40.181Z,9.40
2018-03-19T10:30:18.805Z,9.10
2018-03-19T10:32:46.829Z,8.98
2018-03-19T10:35:20.165Z,8.88
2018-03-19T10:38:06.701Z,8.38
2018-03-19T10:40:35.485Z,10.80
2018-03-19T10:43:05.457Z,8.98
2018-03-19T10:45:34.374Z,8.55
2018-03-19T10:48:02.385Z,9.75
2018-03-19T10:50:43.773Z,10.10
2018-03-19T10:53:23.529Z,8.90
2018-03-19T10:55:53.449Z,10.10
2018-03-19T10:58:22.365Z,8.68
2018-03-19T11:01:03.603Z,9.30
2018-03-19T11:03:31.621Z,9.07
2018-03-19T11:06:05.257Z,9.90
2018-03-19T11:08:34.165Z,9.75
2018-03-19T11:11:04.089Z,10.52
2018-03-19T11:13:32.112Z,11.38
2018-03-19T11:16:00.906Z,10.02
2018-03-19T11:18:30.586Z,10.90
2018-03-19T11:21:02.542Z,10.77
2018-03-19T11:23:43.025Z,9.80
2018-03-19T11:26:14.821Z,11.25
2018-03-19T11:28:43.733Z,10.60
2018-03-19T11:31:12.649Z,11.18
2018-03-19T11:33:42.665Z,10.30
2018-03-19T11:36:11.644Z,11.20
2018-03-19T11:38:43.437Z,10.68
2018-03-19T11:41:14.121Z,10.38
2018-03-19T11:43:45.280Z,11.20
2018-03-19T11:46:19.085Z,10.35
2018-03-19T11:48:50.357Z,10.98
2018-03-19T11:51:42.197Z,10.43
2018-03-19T11:54:13.975Z,10.02
2018-03-19T11:56:45.673Z,10.80
2018-03-19T11:59:13.702Z,11.52
2018-03-19T12:01:41.741Z,10.88
2018-03-19T12:04:10.543Z,10.90
2018-03-19T12:06:38.560Z,10.40
2018-03-19T12:09:21.333Z,11.15
2018-03-19T12:11:51.314Z,10.30
2018-03-19T12:14:23.689Z,10.40
2018-03-19T12:16:52.489Z,10.10
2018-03-19T12:19:21.280Z,10.68
2018-03-19T12:21:51.229Z,10.50
2018-03-19T12:24:21.140Z,10.60
2018-03-19T12:26:49.197Z,11.15
2018-03-19T12:29:18.013Z,10.60
2018-03-19T12:31:46.052Z,10.05
2018-03-19T12:34:14.092Z,10.77
2018-03-19T12:36:43.013Z,18.57
2018-03-19T12:39:14.588Z,11.77
2018-03-19T12:41:43.526Z,10.10
2018-03-19T12:44:13.453Z,9.23
2018-03-19T12:46:42.265Z,16.30
2018-03-19T12:49:10.288Z,12.13
2018-03-19T12:51:38.336Z,10.10
2018-03-19T12:54:07.252Z,9.70
2018-03-19T12:56:35.278Z,9.30
2018-03-19T12:59:05.224Z,10.73
2018-03-19T13:01:44.332Z,9.90
2018-03-19T13:04:17.556Z,10.13
2018-03-19T13:06:45.656Z,10.83
2018-03-19T13:09:19.332Z,11.13
2018-03-19T13:11:47.356Z,12.20
2018-03-19T13:14:19.172Z,10.25
2018-03-19T13:16:51.108Z,11.20
2018-03-19T13:19:22.200Z,10.83
2018-03-19T13:21:58.692Z,10.87
2018-03-19T13:24:26.743Z,10.95
2018-03-19T13:26:58.051Z,10.60
2018-03-19T13:29:26.964Z,10.40
2018-03-19T13:32:01.792Z,9.93
2018-03-19T13:34:35.844Z,10.53
2018-03-19T13:37:07.024Z,11.10
2018-03-19T13:39:36.101Z,10.47
2018-03-19T13:42:05.086Z,11.73
2018-03-19T13:44:36.991Z,11.77
2018-03-19T13:47:12.484Z,12.13
2018-03-19T13:49:50.717Z,11.27
2018-03-19T13:52:18.756Z,10.90
2018-03-19T13:54:53.312Z,11.73
2018-03-19T13:57:21.355Z,11.13
2018-03-19T13:59:49.382Z,13.80
2018-03-19T14:02:18.168Z,16.13
2018-03-19T14:04:49.208Z,10.83
2018-03-19T14:07:19.904Z,11.50
2018-03-19T14:09:49.833Z,10.30
2018-03-19T14:12:22.052Z,10.23
2018-03-19T14:14:57.680Z,11.30
2018-03-19T14:17:26.612Z,11.27
2018-03-19T14:20:01.296Z,10.80
2018-03-19T14:22:33.160Z,12.18
2018-03-19T14:25:03.128Z,11.73
2018-03-19T14:27:32.214Z,10.68
2018-03-19T14:30:00.954Z,12.50
2018-03-19T14:32:35.583Z,10.85
2018-03-19T14:35:09.736Z,11.85
2018-03-19T14:37:37.765Z,11.15
2018-03-19T14:40:09.372Z,12.50
2018-03-19T14:42:37.396Z,11.63
2018-03-19T14:45:10.992Z,17.37
2018-03-19T14:47:42.356Z,11.73
2018-03-19T14:50:14.972Z,18.95
2018-03-19T14:52:42.995Z,12.82
2018-03-19T14:55:14.075Z,11.57
2018-03-19T14:57:42.983Z,11.20
2018-03-19T15:00:19.271Z,11.77
2018-03-19T15:02:47.294Z,10.90
2018-03-19T15:05:15.312Z,10.60
2018-03-19T15:07:43.352Z,10.35
2018-03-19T15:10:16.314Z,10.48
2018-03-19T15:12:59.595Z,11.40
2018-03-19T15:15:35.224Z,10.27
2018-03-19T15:18:13.476Z,10.77
2018-03-19T15:20:42.399Z,10.73
2018-03-19T15:23:23.007Z,12.13
2018-03-19T15:25:52.924Z,10.82
2018-03-19T15:28:22.835Z,11.27
2018-03-19T15:30:50.867Z,10.73
2018-03-19T15:33:42.023Z,10.90
2018-03-19T15:36:27.375Z,11.50
2018-03-19T15:42:13.819Z,10.63
2018-03-19T15:44:42.744Z,10.38
2018-03-19T15:47:11.750Z,10.20
2018-03-19T15:49:43.387Z,10.70
2018-03-19T15:52:11.415Z,12.15
2018-03-19T15:54:42.083Z,10.60
2018-03-19T15:57:11.103Z,12.52
2018-03-19T15:59:43.575Z,11.25
2018-03-19T16:02:12.578Z,11.98
2018-03-19T16:04:40.595Z,11.18
2018-03-19T16:07:10.583Z,20.30
2018-03-19T16:09:43.123Z,12.18
2018-03-19T16:12:11.151Z,12.63
2018-03-19T16:14:42.123Z,11.52
2018-03-19T16:17:10.151Z,11.38
2018-03-19T16:19:38.159Z,13.00
2018-03-19T16:22:07.159Z,11.45
2018-03-19T16:24:35.187Z,12.13
2018-03-19T16:27:04.143Z,12.18
2018-03-19T16:29:33.115Z,11.32
2018-03-19T16:32:01.139Z,11.43
2018-03-19T16:34:29.151Z,13.15
2018-03-19T16:37:01.542Z,12.18
2018-03-19T16:39:29.579Z,11.07
2018-03-19T16:42:01.355Z,12.50
2018-03-19T16:44:31.366Z,13.75
2018-03-19T16:47:00.365Z,13.38
2018-03-19T16:49:32.943Z,13.32
2018-03-19T16:52:00.959Z,13.82
2018-03-19T16:54:29.914Z,12.98
2018-03-19T16:57:05.619Z,12.02
2018-03-19T16:59:40.407Z,12.63
2018-03-19T17:02:11.083Z,12.65
2018-03-19T17:04:41.111Z,13.45
2018-03-19T17:07:14.408Z,12.20
2018-03-19T17:09:46.275Z,13.85
2018-03-19T17:12:24.359Z,11.60
2018-03-19T17:14:58.535Z,12.13
2018-03-19T17:17:28.230Z,11.02
2018-03-19T17:20:04.054Z,17.65
2018-03-19T17:22:33.989Z,12.95
2018-03-19T17:25:10.049Z,11.70
2018-03-19T17:27:39.031Z,10.60
2018-03-19T17:30:07.054Z,10.32
2018-03-19T17:32:35.075Z,12.10
2018-03-19T17:35:27.870Z,12.05
2018-03-19T17:38:00.807Z,11.10
2018-03-19T17:40:29.803Z,11.40
2018-03-19T17:42:59.755Z,11.80
2018-03-19T17:45:28.623Z,11.88
2018-03-19T17:47:58.465Z,12.00
2018-03-19T17:50:30.048Z,10.93
2018-03-19T17:53:00.067Z,11.20
2018-03-19T17:55:28.098Z,12.50
2018-03-19T17:57:56.118Z,11.25
2018-03-19T18:00:29.823Z,11.93
2018-03-19T18:03:11.331Z,11.27
2018-03-19T18:05:41.036Z,11.80
2018-03-19T18:08:09.830Z,11.85
2018-03-19T18:10:38.639Z,11.93
2018-03-19T18:13:10.666Z,12.98
2018-03-19T18:15:39.642Z,11.98
2018-03-19T18:18:07.675Z,11.65
2018-03-19T18:20:35.680Z,13.13
2018-03-19T18:23:08.802Z,11.05
2018-03-19T18:25:37.582Z,12.30
2018-03-19T18:28:09.606Z,11.68
2018-03-19T18:30:41.318Z,11.18
2018-03-19T18:33:09.382Z,13.10
2018-03-19T18:35:38.187Z,13.95
2018-03-19T18:38:09.782Z,13.62
2018-03-19T18:40:37.783Z,13.38
2018-03-19T18:43:06.595Z,12.43
2018-03-19T18:45:35.522Z,11.82
2018-03-19T18:48:03.538Z,13.10
2018-03-19T18:50:33.214Z,13.70
2018-03-19T18:53:01.242Z,14.75
2018-03-19T18:55:29.253Z,14.32
2018-03-19T18:57:58.246Z,13.40
2018-03-19T19:00:26.270Z,13.10
2018-03-19T19:02:58.997Z,12.90
2018-03-19T19:05:33.595Z,10.85
2018-03-19T19:08:01.663Z,12.60
2018-03-19T19:10:30.550Z,13.30
2018-03-19T19:13:01.840Z,11.25
2018-03-19T19:15:29.870Z,13.27
2018-03-19T19:17:57.894Z,12.05
2018-03-19T19:20:28.604Z,13.50
2018-03-19T19:22:58.618Z,11.38
2018-03-19T19:25:26.738Z,12.68
2018-03-19T19:27:55.674Z,11.80
2018-03-19T19:30:23.706Z,11.95
2018-03-19T19:32:52.642Z,12.07
2018-03-19T19:35:22.474Z,13.52
2018-03-19T19:37:50.806Z,12.65
2018-03-19T19:40:19.782Z,11.95
2018-03-19T19:42:48.706Z,12.07
2018-03-19T19:45:16.778Z,12.63
2018-03-19T19:47:44.815Z,11.07
2018-03-19T19:50:12.857Z,11.90
2018-03-19T19:52:41.661Z,12.23
2018-03-19T19:55:10.626Z,12.18
2018-03-19T19:57:41.409Z,13.07
2018-03-19T20:00:13.502Z,11.50
2018-03-19T20:02:41.895Z,9.43
2018-03-19T20:05:09.942Z,10.52
2018-03-19T20:10:12.165Z,12.00
2018-03-19T20:12:40.250Z,12.40
2018-03-19T20:15:09.081Z,12.02
2018-03-19T20:17:41.591Z,12.45
2018-03-19T20:20:10.130Z,12.95
2018-03-19T20:22:38.217Z,12.15
2018-03-19T20:25:07.302Z,9.15
2018-03-19T20:27:36.914Z,10.57
2018-03-19T20:30:14.074Z,9.77
2018-03-19T20:32:44.254Z,10.27
2018-03-19T20:35:13.977Z,8.27
2018-03-19T20:37:46.334Z,10.02
2018-03-19T20:40:23.135Z,10.30
2018-03-19T20:43:12.697Z,9.35
2018-03-19T20:45:46.478Z,9.73
2018-03-19T20:48:18.509Z,10.13
2018-03-19T20:50:49.929Z,9.98
2018-03-19T20:53:18.933Z,8.80
2018-03-19T20:55:46.981Z,9.50
2018-03-19T20:58:17.149Z,9.82
2018-03-19T21:00:47.837Z,9.95
2018-03-19T21:03:21.198Z,11.35
2018-03-19T21:05:53.653Z,10.25
2018-03-19T21:08:41.277Z,10.88
2018-03-19T21:11:09.343Z,9.25
2018-03-19T21:18:49.409Z,8.70
2018-03-19T21:23:54.690Z,8.75
2018-03-19T21:26:26.315Z,9.63
2018-03-19T21:28:58.845Z,10.13
2018-03-19T21:31:28.633Z,10.40
2018-03-19T21:34:09.310Z,9.65
2018-03-19T21:39:14.205Z,9.95
2018-03-19T21:41:47.118Z,11.95
2018-03-19T21:44:16.394Z,10.93
2018-03-19T21:46:44.789Z,10.35
2018-03-19T21:49:14.809Z,9.63
2018-03-19T21:51:42.917Z,10.25
2018-03-19T21:54:24.954Z,8.80
2018-03-19T21:56:52.977Z,9.73
2018-03-19T21:59:26.437Z,9.82
2018-03-19T22:01:55.489Z,10.25
2018-03-19T22:04:23.584Z,8.82
2018-03-19T22:06:57.285Z,8.48
2018-03-19T22:09:29.565Z,9.38
2018-03-19T22:11:59.617Z,8.90
2018-03-19T22:14:29.709Z,10.88
2018-03-19T22:16:59.745Z,9.43
2018-03-19T22:19:29.820Z,9.82
2018-03-19T22:22:01.021Z,9.02
2018-03-19T22:24:31.053Z,9.15
2018-03-19T22:26:59.905Z,9.10
2018-03-19T22:29:27.941Z,9.70
2018-03-19T22:31:57.014Z,9.70
2018-03-19T22:34:25.025Z,11.35
2018-03-19T22:36:53.106Z,9.30
2018-03-19T22:39:39.806Z,9.35
2018-03-19T22:42:07.853Z,11.23
2018-03-19T22:44:36.794Z,10.10
2018-03-19T22:47:04.889Z,8.80
2018-03-19T22:49:41.489Z,10.10
2018-03-19T22:52:10.433Z,9.48
2018-03-19T22:54:39.088Z,10.55
2018-03-19T22:57:11.505Z,10.10
2018-03-19T22:59:40.313Z,9.27
2018-03-19T23:02:10.397Z,9.90
2018-03-19T23:04:51.221Z,10.13
2018-03-19T23:07:25.889Z,9.05
2018-03-19T23:09:54.881Z,8.65
2018-03-19T23:12:31.424Z,9.38
2018-03-19T23:15:03.946Z,8.73
2018-03-19T23:17:36.017Z,9.75
2018-03-19T23:20:06.993Z,9.20
2018-03-19T23:22:40.121Z,8.38
2018-03-19T23:25:09.125Z,10.52
2018-03-19T23:27:41.726Z,10.00
2018-03-19T23:30:13.548Z,9.75
2018-03-19T23:32:42.566Z,11.10
2018-03-19T23:35:11.393Z,9.00
2018-03-19T23:37:39.429Z,8.07
2018-03-19T23:40:08.473Z,10.02
2018-03-19T23:42:39.529Z,10.70
2018-03-19T23:45:07.552Z,11.27
2018-03-19T23:47:35.609Z,11.30
2018-03-19T23:50:05.377Z,11.00
2018-03-19T23:52:34.380Z,11.48
2018-03-19T23:55:04.173Z,9.73
2018-03-19T23:57:42.685Z,9.35
